Terminal Aerodrome Forecast
Issued by NWS

Current Version | Previous Version | Text Only | Print | Product List | Glossary On
Versions: 1 2 3 4 5 6 7 8 9 10 11 12 13 14 15
000
FTUS41 KPBZ 271100
TAFZZV
TAF
KZZV 271125Z 2712/2812 00000KT 5SM BR BKN040
     FM271400 24005KT P6SM VCSH BKN040
     FM272100 30008KT P6SM BKN035
     FM280300 34005KT P6SM SCT035=

USA.gov is the U.S. government's official web portal to all federal, state and local government web resources and services.